sensor_id;sensor_type;location;lat;lon;timestamp;temperature;humidity
11961;DHT22;6040;49.358;11.140;2023-08-12T00:00:17;17.50;99.90
11961;DHT22;6040;49.358;11.140;2023-08-12T00:02:44;17.50;99.90
11961;DHT22;6040;49.358;11.140;2023-08-12T00:05:12;17.50;99.90
11961;DHT22;6040;49.358;11.140;2023-08-12T00:07:39;17.50;99.90
11961;DHT22;6040;49.358;11.140;2023-08-12T00:10:09;17.40;99.90
11961;DHT22;6040;49.358;11.140;2023-08-12T00:12:37;17.40;99.90
11961;DHT22;6040;49.358;11.140;2023-08-12T00:15:05;17.30;99.90
11961;DHT22;6040;49.358;11.140;2023-08-12T00:17:33;17.30;99.90
11961;DHT22;6040;49.358;11.140;2023-08-12T00:20:01;17.30;99.90
11961;DHT22;6040;49.358;11.140;2023-08-12T00:22:31;17.30;99.90
11961;DHT22;6040;49.358;11.140;2023-08-12T00:24:57;17.20;99.90
11961;DHT22;6040;49.358;11.140;2023-08-12T00:27:25;17.20;99.90
11961;DHT22;6040;49.358;11.140;2023-08-12T00:29:52;17.20;99.90
11961;DHT22;6040;49.358;11.140;2023-08-12T00:32:19;17.20;99.90
11961;DHT22;6040;49.358;11.140;2023-08-12T00:34:46;17.20;99.90
11961;DHT22;6040;49.358;11.140;2023-08-12T00:37:13;17.20;99.90
11961;DHT22;6040;49.358;11.140;2023-08-12T00:39:40;17.10;99.90
11961;DHT22;6040;49.358;11.140;2023-08-12T00:42:06;17.10;99.90
11961;DHT22;6040;49.358;11.140;2023-08-12T00:44:35;17.10;99.90
11961;DHT22;6040;49.358;11.140;2023-08-12T00:47:02;17.10;99.90
11961;DHT22;6040;49.358;11.140;2023-08-12T00:49:29;17.00;99.90
11961;DHT22;6040;49.358;11.140;2023-08-12T00:51:57;17.00;99.90
11961;DHT22;6040;49.358;11.140;2023-08-12T00:54:26;17.00;99.90
11961;DHT22;6040;49.358;11.140;2023-08-12T00:56:53;17.00;99.90
11961;DHT22;6040;49.358;11.140;2023-08-12T00:59:22;16.90;99.90
11961;DHT22;6040;49.358;11.140;2023-08-12T01:01:50;16.90;99.90
11961;DHT22;6040;49.358;11.140;2023-08-12T01:04:17;16.90;99.90
11961;DHT22;6040;49.358;11.140;2023-08-12T01:06:44;16.90;99.90
11961;DHT22;6040;49.358;11.140;2023-08-12T01:09:11;16.90;99.90
11961;DHT22;6040;49.358;11.140;2023-08-12T01:11:41;16.80;99.90
11961;DHT22;6040;49.358;11.140;2023-08-12T01:14:14;16.80;99.90
11961;DHT22;6040;49.358;11.140;2023-08-12T01:16:44;16.70;99.90
11961;DHT22;6040;49.358;11.140;2023-08-12T01:19:22;16.80;99.90
11961;DHT22;6040;49.358;11.140;2023-08-12T01:21:53;16.70;99.90
11961;DHT22;6040;49.358;11.140;2023-08-12T01:24:22;16.70;99.90
11961;DHT22;6040;49.358;11.140;2023-08-12T01:26:51;16.60;99.90
11961;DHT22;6040;49.358;11.140;2023-08-12T01:29:18;16.70;99.90
11961;DHT22;6040;49.358;11.140;2023-08-12T01:31:50;16.60;99.90
11961;DHT22;6040;49.358;11.140;2023-08-12T01:34:23;16.60;99.90
11961;DHT22;6040;49.358;11.140;2023-08-12T01:36:55;16.60;99.90
11961;DHT22;6040;49.358;11.140;2023-08-12T01:39:24;16.40;99.90
11961;DHT22;6040;49.358;11.140;2023-08-12T01:41:53;16.50;99.90
11961;DHT22;6040;49.358;11.140;2023-08-12T01:44:20;16.50;99.90
11961;DHT22;6040;49.358;11.140;2023-08-12T01:46:49;16.50;99.90
11961;DHT22;6040;49.358;11.140;2023-08-12T01:49:16;16.60;99.90
11961;DHT22;6040;49.358;11.140;2023-08-12T01:51:42;17.30;99.90
11961;DHT22;6040;49.358;11.140;2023-08-12T01:54:09;16.60;99.90
11961;DHT22;6040;49.358;11.140;2023-08-12T01:56:37;16.60;99.90
11961;DHT22;6040;49.358;11.140;2023-08-12T01:59:04;16.50;99.90
11961;DHT22;6040;49.358;11.140;2023-08-12T02:01:31;16.40;99.90
11961;DHT22;6040;49.358;11.140;2023-08-12T02:03:58;16.70;99.90
11961;DHT22;6040;49.358;11.140;2023-08-12T02:06:24;16.30;99.90
11961;DHT22;6040;49.358;11.140;2023-08-12T02:08:51;16.20;99.90
11961;DHT22;6040;49.358;11.140;2023-08-12T02:11:18;16.20;99.90
11961;DHT22;6040;49.358;11.140;2023-08-12T02:13:46;16.20;99.90
11961;DHT22;6040;49.358;11.140;2023-08-12T02:16:13;16.20;99.90
11961;DHT22;6040;49.358;11.140;2023-08-12T02:18:40;16.30;99.90
11961;DHT22;6040;49.358;11.140;2023-08-12T02:21:06;16.10;99.90
11961;DHT22;6040;49.358;11.140;2023-08-12T02:23:33;16.00;99.90
11961;DHT22;6040;49.358;11.140;2023-08-12T02:26:00;16.00;99.90
11961;DHT22;6040;49.358;11.140;2023-08-12T02:28:28;16.00;99.90
11961;DHT22;6040;49.358;11.140;2023-08-12T02:30:56;15.90;99.90
11961;DHT22;6040;49.358;11.140;2023-08-12T02:33:23;15.80;99.90
11961;DHT22;6040;49.358;11.140;2023-08-12T02:35:53;15.90;99.90
11961;DHT22;6040;49.358;11.140;2023-08-12T02:38:20;15.90;99.90
11961;DHT22;6040;49.358;11.140;2023-08-12T02:40:48;16.00;99.90
11961;DHT22;6040;49.358;11.140;2023-08-12T02:43:15;16.00;99.90
11961;DHT22;6040;49.358;11.140;2023-08-12T02:45:41;16.10;99.90
11961;DHT22;6040;49.358;11.140;2023-08-12T02:48:10;16.00;99.90
11961;DHT22;6040;49.358;11.140;2023-08-12T02:50:37;16.10;99.90
11961;DHT22;6040;49.358;11.140;2023-08-12T02:53:04;16.10;99.90
11961;DHT22;6040;49.358;11.140;2023-08-12T02:55:31;16.10;99.90
11961;DHT22;6040;49.358;11.140;2023-08-12T02:57:58;16.00;99.90
11961;DHT22;6040;49.358;11.140;2023-08-12T03:00:25;16.10;99.90
11961;DHT22;6040;49.358;11.140;2023-08-12T03:02:52;16.00;99.90
11961;DHT22;6040;49.358;11.140;2023-08-12T03:05:21;17.40;99.90
11961;DHT22;6040;49.358;11.140;2023-08-12T03:07:48;15.90;99.90
11961;DHT22;6040;49.358;11.140;2023-08-12T03:10:15;16.00;99.90
11961;DHT22;6040;49.358;11.140;2023-08-12T03:12:42;15.90;99.90
11961;DHT22;6040;49.358;11.140;2023-08-12T03:15:09;16.00;99.90
11961;DHT22;6040;49.358;11.140;2023-08-12T03:17:37;15.90;99.90
11961;DHT22;6040;49.358;11.140;2023-08-12T03:20:05;15.90;99.90
11961;DHT22;6040;49.358;11.140;2023-08-12T03:22:35;15.80;99.90
11961;DHT22;6040;49.358;11.140;2023-08-12T03:25:03;15.70;99.90
11961;DHT22;6040;49.358;11.140;2023-08-12T03:27:30;15.80;99.90
11961;DHT22;6040;49.358;11.140;2023-08-12T03:29:57;15.80;99.90
11961;DHT22;6040;49.358;11.140;2023-08-12T03:32:24;15.70;99.90
11961;DHT22;6040;49.358;11.140;2023-08-12T03:34:51;15.70;99.90
11961;DHT22;6040;49.358;11.140;2023-08-12T03:37:18;15.60;99.90
11961;DHT22;6040;49.358;11.140;2023-08-12T03:39:46;15.60;99.90
11961;DHT22;6040;49.358;11.140;2023-08-12T03:42:13;15.50;99.90
11961;DHT22;6040;49.358;11.140;2023-08-12T03:44:40;15.50;99.90
11961;DHT22;6040;49.358;11.140;2023-08-12T03:47:07;15.50;99.90
11961;DHT22;6040;49.358;11.140;2023-08-12T03:49:34;15.50;99.90
11961;DHT22;6040;49.358;11.140;2023-08-12T03:52:01;15.40;99.90
11961;DHT22;6040;49.358;11.140;2023-08-12T03:54:28;15.50;99.90
11961;DHT22;6040;49.358;11.140;2023-08-12T03:56:56;15.40;99.90
11961;DHT22;6040;49.358;11.140;2023-08-12T03:59:23;15.40;99.90
11961;DHT22;6040;49.358;11.140;2023-08-12T04:01:50;15.30;99.90
11961;DHT22;6040;49.358;11.140;2023-08-12T04:04:17;17.00;99.90
11961;DHT22;6040;49.358;11.140;2023-08-12T04:06:44;15.30;99.90
11961;DHT22;6040;49.358;11.140;2023-08-12T04:09:10;15.30;99.90
11961;DHT22;6040;49.358;11.140;2023-08-12T04:11:37;15.20;99.90
11961;DHT22;6040;49.358;11.140;2023-08-12T04:14:05;15.30;99.90
11961;DHT22;6040;49.358;11.140;2023-08-12T04:16:32;15.30;99.90
11961;DHT22;6040;49.358;11.140;2023-08-12T04:18:59;15.30;99.90
11961;DHT22;6040;49.358;11.140;2023-08-12T04:21:26;15.30;99.90
11961;DHT22;6040;49.358;11.140;2023-08-12T04:23:53;15.30;99.90
11961;DHT22;6040;49.358;11.140;2023-08-12T04:26:19;15.30;99.90
11961;DHT22;6040;49.358;11.140;2023-08-12T04:28:46;15.30;99.90
11961;DHT22;6040;49.358;11.140;2023-08-12T04:31:14;15.40;99.90
11961;DHT22;6040;49.358;11.140;2023-08-12T04:33:41;15.40;99.90
11961;DHT22;6040;49.358;11.140;2023-08-12T04:36:08;15.40;99.90
11961;DHT22;6040;49.358;11.140;2023-08-12T04:38:34;15.60;99.90
11961;DHT22;6040;49.358;11.140;2023-08-12T04:41:01;15.50;99.90
11961;DHT22;6040;49.358;11.140;2023-08-12T04:43:28;15.50;99.90
11961;DHT22;6040;49.358;11.140;2023-08-12T04:45:55;15.60;99.90
11961;DHT22;6040;49.358;11.140;2023-08-12T04:48:23;15.70;99.90
11961;DHT22;6040;49.358;11.140;2023-08-12T04:50:50;15.70;99.90
11961;DHT22;6040;49.358;11.140;2023-08-12T04:53:17;15.80;99.90
11961;DHT22;6040;49.358;11.140;2023-08-12T04:55:44;15.90;99.90
11961;DHT22;6040;49.358;11.140;2023-08-12T04:58:11;16.00;99.90
11961;DHT22;6040;49.358;11.140;2023-08-12T05:00:37;16.10;99.90
11961;DHT22;6040;49.358;11.140;2023-08-12T05:03:04;16.20;99.90
11961;DHT22;6040;49.358;11.140;2023-08-12T05:05:32;16.40;99.90
11961;DHT22;6040;49.358;11.140;2023-08-12T05:07:59;16.50;99.90
11961;DHT22;6040;49.358;11.140;2023-08-12T05:10:26;16.70;99.90
11961;DHT22;6040;49.358;11.140;2023-08-12T05:12:53;16.80;99.90
11961;DHT22;6040;49.358;11.140;2023-08-12T05:15:20;17.00;99.90
11961;DHT22;6040;49.358;11.140;2023-08-12T05:17:47;17.20;99.90
11961;DHT22;6040;49.358;11.140;2023-08-12T05:20:13;17.40;99.90
11961;DHT22;6040;49.358;11.140;2023-08-12T05:22:42;17.60;99.90
11961;DHT22;6040;49.358;11.140;2023-08-12T05:25:08;17.90;99.90
11961;DHT22;6040;49.358;11.140;2023-08-12T05:27:35;17.90;99.90
11961;DHT22;6040;49.358;11.140;2023-08-12T05:30:02;17.90;99.90
11961;DHT22;6040;49.358;11.140;2023-08-12T05:32:29;17.90;99.90
11961;DHT22;6040;49.358;11.140;2023-08-12T05:34:56;18.10;99.90
11961;DHT22;6040;49.358;11.140;2023-08-12T05:37:23;18.30;99.90
11961;DHT22;6040;49.358;11.140;2023-08-12T05:39:51;18.40;99.90
11961;DHT22;6040;49.358;11.140;2023-08-12T05:42:18;18.70;99.90
11961;DHT22;6040;49.358;11.140;2023-08-12T05:44:45;18.80;99.90
11961;DHT22;6040;49.358;11.140;2023-08-12T05:47:11;19.00;99.90
11961;DHT22;6040;49.358;11.140;2023-08-12T05:49:38;19.20;99.90
11961;DHT22;6040;49.358;11.140;2023-08-12T05:52:05;19.80;99.90
11961;DHT22;6040;49.358;11.140;2023-08-12T05:54:32;20.50;99.90
11961;DHT22;6040;49.358;11.140;2023-08-12T05:57:00;20.60;99.90
11961;DHT22;6040;49.358;11.140;2023-08-12T05:59:27;20.70;99.90
11961;DHT22;6040;49.358;11.140;2023-08-12T06:01:54;21.20;99.90
11961;DHT22;6040;49.358;11.140;2023-08-12T06:04:21;21.80;99.90
11961;DHT22;6040;49.358;11.140;2023-08-12T06:06:47;22.50;99.90
11961;DHT22;6040;49.358;11.140;2023-08-12T06:09:14;23.20;99.90
11961;DHT22;6040;49.358;11.140;2023-08-12T06:11:41;23.60;99.90
11961;DHT22;6040;49.358;11.140;2023-08-12T06:14:09;23.20;99.90
11961;DHT22;6040;49.358;11.140;2023-08-12T06:16:36;22.50;99.90
11961;DHT22;6040;49.358;11.140;2023-08-12T06:19:03;22.00;99.90
11961;DHT22;6040;49.358;11.140;2023-08-12T06:21:30;21.70;99.90
11961;DHT22;6040;49.358;11.140;2023-08-12T06:23:57;21.50;99.90
11961;DHT22;6040;49.358;11.140;2023-08-12T06:26:24;21.30;99.90
11961;DHT22;6040;49.358;11.140;2023-08-12T06:28:51;21.20;99.90
11961;DHT22;6040;49.358;11.140;2023-08-12T06:31:19;21.10;99.90
11961;DHT22;6040;49.358;11.140;2023-08-12T06:33:46;21.00;99.90
11961;DHT22;6040;49.358;11.140;2023-08-12T06:36:12;21.00;99.90
11961;DHT22;6040;49.358;11.140;2023-08-12T06:38:39;21.10;99.90
11961;DHT22;6040;49.358;11.140;2023-08-12T06:41:06;21.10;99.90
11961;DHT22;6040;49.358;11.140;2023-08-12T06:43:33;21.10;99.90
11961;DHT22;6040;49.358;11.140;2023-08-12T06:46:00;21.10;99.90
11961;DHT22;6040;49.358;11.140;2023-08-12T06:48:28;21.20;99.90
11961;DHT22;6040;49.358;11.140;2023-08-12T06:50:56;21.20;99.90
11961;DHT22;6040;49.358;11.140;2023-08-12T06:53:22;21.20;99.90
11961;DHT22;6040;49.358;11.140;2023-08-12T06:55:49;21.30;99.90
11961;DHT22;6040;49.358;11.140;2023-08-12T06:58:16;21.30;99.90
11961;DHT22;6040;49.358;11.140;2023-08-12T07:00:43;21.40;99.90
11961;DHT22;6040;49.358;11.140;2023-08-12T07:03:10;21.50;99.90
11961;DHT22;6040;49.358;11.140;2023-08-12T07:05:38;21.60;99.90
11961;DHT22;6040;49.358;11.140;2023-08-12T07:08:05;21.70;99.90
11961;DHT22;6040;49.358;11.140;2023-08-12T07:10:32;21.80;99.90
11961;DHT22;6040;49.358;11.140;2023-08-12T07:12:58;21.90;99.90
11961;DHT22;6040;49.358;11.140;2023-08-12T07:15:25;21.90;99.90
11961;DHT22;6040;49.358;11.140;2023-08-12T07:17:52;22.10;99.90
11961;DHT22;6040;49.358;11.140;2023-08-12T07:20:19;22.20;99.90
11961;DHT22;6040;49.358;11.140;2023-08-12T07:22:47;22.30;99.90
11961;DHT22;6040;49.358;11.140;2023-08-12T07:25:14;22.50;99.90
11961;DHT22;6040;49.358;11.140;2023-08-12T07:27:41;22.60;99.90
11961;DHT22;6040;49.358;11.140;2023-08-12T07:30:08;22.70;99.90
11961;DHT22;6040;49.358;11.140;2023-08-12T07:32:36;22.80;99.90
11961;DHT22;6040;49.358;11.140;2023-08-12T07:35:03;22.90;99.90
11961;DHT22;6040;49.358;11.140;2023-08-12T07:37:31;22.90;99.90
11961;DHT22;6040;49.358;11.140;2023-08-12T07:39:59;23.00;99.90
11961;DHT22;6040;49.358;11.140;2023-08-12T07:42:26;23.20;99.90
11961;DHT22;6040;49.358;11.140;2023-08-12T07:44:53;23.20;99.90
11961;DHT22;6040;49.358;11.140;2023-08-12T07:47:20;23.10;99.90
11961;DHT22;6040;49.358;11.140;2023-08-12T07:49:46;23.20;99.90
11961;DHT22;6040;49.358;11.140;2023-08-12T07:52:13;23.20;99.90
11961;DHT22;6040;49.358;11.140;2023-08-12T07:54:40;23.20;99.90
11961;DHT22;6040;49.358;11.140;2023-08-12T07:57:08;23.20;99.90
11961;DHT22;6040;49.358;11.140;2023-08-12T07:59:35;23.30;99.90
11961;DHT22;6040;49.358;11.140;2023-08-12T08:02:02;23.30;99.90
11961;DHT22;6040;49.358;11.140;2023-08-12T08:04:29;23.40;99.90
11961;DHT22;6040;49.358;11.140;2023-08-12T08:06:56;23.40;99.90
11961;DHT22;6040;49.358;11.140;2023-08-12T08:09:23;23.50;99.90
11961;DHT22;6040;49.358;11.140;2023-08-12T08:11:50;23.80;99.90
11961;DHT22;6040;49.358;11.140;2023-08-12T08:14:18;24.00;99.90
11961;DHT22;6040;49.358;11.140;2023-08-12T08:16:45;24.20;99.90
11961;DHT22;6040;49.358;11.140;2023-08-12T08:19:12;24.20;99.90
11961;DHT22;6040;49.358;11.140;2023-08-12T08:21:39;24.40;99.90
11961;DHT22;6040;49.358;11.140;2023-08-12T08:24:06;24.20;99.90
11961;DHT22;6040;49.358;11.140;2023-08-12T08:26:33;24.10;99.90
11961;DHT22;6040;49.358;11.140;2023-08-12T08:29:00;24.20;99.90
11961;DHT22;6040;49.358;11.140;2023-08-12T08:31:28;24.30;99.90
11961;DHT22;6040;49.358;11.140;2023-08-12T08:33:55;24.30;99.90
11961;DHT22;6040;49.358;11.140;2023-08-12T08:36:22;24.20;99.90
11961;DHT22;6040;49.358;11.140;2023-08-12T08:38:49;24.40;99.90
11961;DHT22;6040;49.358;11.140;2023-08-12T08:41:16;24.40;99.90
11961;DHT22;6040;49.358;11.140;2023-08-12T08:43:43;24.60;99.90
11961;DHT22;6040;49.358;11.140;2023-08-12T08:46:14;24.60;99.90
11961;DHT22;6040;49.358;11.140;2023-08-12T08:48:43;24.60;99.90
11961;DHT22;6040;49.358;11.140;2023-08-12T08:51:11;24.50;99.90
11961;DHT22;6040;49.358;11.140;2023-08-12T08:53:38;24.40;99.90
11961;DHT22;6040;49.358;11.140;2023-08-12T08:56:06;24.30;99.90
11961;DHT22;6040;49.358;11.140;2023-08-12T08:58:33;24.30;99.90
11961;DHT22;6040;49.358;11.140;2023-08-12T09:01:01;24.30;99.90
11961;DHT22;6040;49.358;11.140;2023-08-12T09:03:29;24.20;99.90
11961;DHT22;6040;49.358;11.140;2023-08-12T09:05:58;24.20;99.90
11961;DHT22;6040;49.358;11.140;2023-08-12T09:08:26;24.30;99.90
11961;DHT22;6040;49.358;11.140;2023-08-12T09:10:55;24.40;99.90
11961;DHT22;6040;49.358;11.140;2023-08-12T09:13:23;24.50;99.90
11961;DHT22;6040;49.358;11.140;2023-08-12T09:15:50;24.70;99.90
11961;DHT22;6040;49.358;11.140;2023-08-12T09:18:17;25.00;99.90
11961;DHT22;6040;49.358;11.140;2023-08-12T09:20:44;25.30;99.90
11961;DHT22;6040;49.358;11.140;2023-08-12T09:23:12;25.30;99.90
11961;DHT22;6040;49.358;11.140;2023-08-12T09:25:42;25.40;99.90
11961;DHT22;6040;49.358;11.140;2023-08-12T09:28:09;25.30;99.90
11961;DHT22;6040;49.358;11.140;2023-08-12T09:30:38;25.40;99.90
11961;DHT22;6040;49.358;11.140;2023-08-12T09:33:06;25.40;99.90
11961;DHT22;6040;49.358;11.140;2023-08-12T09:35:34;25.40;99.90
11961;DHT22;6040;49.358;11.140;2023-08-12T09:38:03;25.50;99.80
11961;DHT22;6040;49.358;11.140;2023-08-12T09:40:34;25.60;99.90
11961;DHT22;6040;49.358;11.140;2023-08-12T09:43:01;25.70;99.80
11961;DHT22;6040;49.358;11.140;2023-08-12T09:45:29;25.80;99.50
11961;DHT22;6040;49.358;11.140;2023-08-12T09:47:56;25.70;99.90
11961;DHT22;6040;49.358;11.140;2023-08-12T09:50:24;25.90;99.90
11961;DHT22;6040;49.358;11.140;2023-08-12T09:52:52;26.00;99.90
11961;DHT22;6040;49.358;11.140;2023-08-12T09:55:21;26.00;99.90
11961;DHT22;6040;49.358;11.140;2023-08-12T09:57:51;26.30;99.90
11961;DHT22;6040;49.358;11.140;2023-08-12T10:00:19;26.40;99.90
11961;DHT22;6040;49.358;11.140;2023-08-12T10:02:48;26.50;99.20
11961;DHT22;6040;49.358;11.140;2023-08-12T10:05:19;26.40;98.80
11961;DHT22;6040;49.358;11.140;2023-08-12T10:07:47;26.40;98.50
11961;DHT22;6040;49.358;11.140;2023-08-12T10:10:15;26.50;98.50
11961;DHT22;6040;49.358;11.140;2023-08-12T10:12:42;26.80;99.40
11961;DHT22;6040;49.358;11.140;2023-08-12T10:15:11;27.20;99.90
11961;DHT22;6040;49.358;11.140;2023-08-12T10:17:38;27.30;98.30
11961;DHT22;6040;49.358;11.140;2023-08-12T10:20:08;27.40;98.20
11961;DHT22;6040;49.358;11.140;2023-08-12T10:22:36;27.30;97.30
11961;DHT22;6040;49.358;11.140;2023-08-12T10:25:07;27.30;98.00
11961;DHT22;6040;49.358;11.140;2023-08-12T10:27:34;27.50;98.80
11961;DHT22;6040;49.358;11.140;2023-08-12T10:30:03;28.40;98.20
11961;DHT22;6040;49.358;11.140;2023-08-12T10:32:31;27.80;98.40
11961;DHT22;6040;49.358;11.140;2023-08-12T10:34:58;28.00;96.90
11961;DHT22;6040;49.358;11.140;2023-08-12T10:37:25;28.30;97.10
11961;DHT22;6040;49.358;11.140;2023-08-12T10:39:53;28.90;98.20
11961;DHT22;6040;49.358;11.140;2023-08-12T10:42:45;29.30;96.20
11961;DHT22;6040;49.358;11.140;2023-08-12T10:45:14;29.10;96.60
11961;DHT22;6040;49.358;11.140;2023-08-12T10:47:43;29.20;96.40
11961;DHT22;6040;49.358;11.140;2023-08-12T10:50:17;29.20;96.70
11961;DHT22;6040;49.358;11.140;2023-08-12T10:52:44;29.20;97.00
11961;DHT22;6040;49.358;11.140;2023-08-12T10:55:19;29.60;96.30
11961;DHT22;6040;49.358;11.140;2023-08-12T10:57:47;29.80;95.40
11961;DHT22;6040;49.358;11.140;2023-08-12T11:00:14;30.00;96.00
11961;DHT22;6040;49.358;11.140;2023-08-12T11:02:46;30.20;96.60
11961;DHT22;6040;49.358;11.140;2023-08-12T11:05:15;30.50;96.60
11961;DHT22;6040;49.358;11.140;2023-08-12T11:07:45;30.60;93.90
11961;DHT22;6040;49.358;11.140;2023-08-12T11:10:14;30.80;95.00
11961;DHT22;6040;49.358;11.140;2023-08-12T11:12:42;31.30;95.60
11961;DHT22;6040;49.358;11.140;2023-08-12T11:15:13;31.00;94.90
11961;DHT22;6040;49.358;11.140;2023-08-12T11:17:41;31.40;94.30
11961;DHT22;6040;49.358;11.140;2023-08-12T11:20:11;31.80;94.60
11961;DHT22;6040;49.358;11.140;2023-08-12T11:22:39;32.00;93.20
11961;DHT22;6040;49.358;11.140;2023-08-12T11:25:07;32.10;93.00
11961;DHT22;6040;49.358;11.140;2023-08-12T11:27:41;32.20;94.30
11961;DHT22;6040;49.358;11.140;2023-08-12T11:30:09;32.10;93.70
11961;DHT22;6040;49.358;11.140;2023-08-12T11:32:37;32.10;91.90
11961;DHT22;6040;49.358;11.140;2023-08-12T11:35:06;32.30;94.40
11961;DHT22;6040;49.358;11.140;2023-08-12T11:37:35;32.50;93.30
11961;DHT22;6040;49.358;11.140;2023-08-12T11:40:02;32.40;91.20
11961;DHT22;6040;49.358;11.140;2023-08-12T11:42:29;32.30;92.10
11961;DHT22;6040;49.358;11.140;2023-08-12T11:44:56;32.40;92.40
11961;DHT22;6040;49.358;11.140;2023-08-12T11:47:23;32.60;91.50
11961;DHT22;6040;49.358;11.140;2023-08-12T11:49:52;32.60;91.60
11961;DHT22;6040;49.358;11.140;2023-08-12T11:52:19;32.60;90.60
11961;DHT22;6040;49.358;11.140;2023-08-12T11:54:48;32.70;91.80
11961;DHT22;6040;49.358;11.140;2023-08-12T11:57:15;32.80;92.40
11961;DHT22;6040;49.358;11.140;2023-08-12T11:59:42;33.00;91.00
11961;DHT22;6040;49.358;11.140;2023-08-12T12:02:10;33.10;90.90
11961;DHT22;6040;49.358;11.140;2023-08-12T12:04:37;33.20;91.70
11961;DHT22;6040;49.358;11.140;2023-08-12T12:07:17;33.40;90.10
11961;DHT22;6040;49.358;11.140;2023-08-12T12:09:44;33.30;90.20
11961;DHT22;6040;49.358;11.140;2023-08-12T12:12:12;33.00;92.00
11961;DHT22;6040;49.358;11.140;2023-08-12T12:14:39;33.20;91.60
11961;DHT22;6040;49.358;11.140;2023-08-12T12:17:07;33.40;90.80
11961;DHT22;6040;49.358;11.140;2023-08-12T12:19:35;33.60;88.60
11961;DHT22;6040;49.358;11.140;2023-08-12T12:22:03;33.80;90.00
11961;DHT22;6040;49.358;11.140;2023-08-12T12:24:31;33.70;85.80
11961;DHT22;6040;49.358;11.140;2023-08-12T12:26:57;33.50;85.40
11961;DHT22;6040;49.358;11.140;2023-08-12T12:29:26;33.20;88.90
11961;DHT22;6040;49.358;11.140;2023-08-12T12:31:53;33.00;85.90
11961;DHT22;6040;49.358;11.140;2023-08-12T12:34:19;33.10;90.30
11961;DHT22;6040;49.358;11.140;2023-08-12T12:36:47;33.30;87.90
11961;DHT22;6040;49.358;11.140;2023-08-12T12:39:14;33.20;85.90
11961;DHT22;6040;49.358;11.140;2023-08-12T12:41:41;33.40;87.50
11961;DHT22;6040;49.358;11.140;2023-08-12T12:44:07;33.40;87.60
11961;DHT22;6040;49.358;11.140;2023-08-12T12:46:35;33.40;88.60
11961;DHT22;6040;49.358;11.140;2023-08-12T12:49:02;33.70;84.00
11961;DHT22;6040;49.358;11.140;2023-08-12T12:51:29;33.40;86.90
11961;DHT22;6040;49.358;11.140;2023-08-12T12:53:56;33.20;88.00
11961;DHT22;6040;49.358;11.140;2023-08-12T12:56:23;33.00;89.30
11961;DHT22;6040;49.358;11.140;2023-08-12T12:58:50;33.10;86.70
11961;DHT22;6040;49.358;11.140;2023-08-12T13:01:16;33.20;87.10
11961;DHT22;6040;49.358;11.140;2023-08-12T13:03:45;33.10;90.90
11961;DHT22;6040;49.358;11.140;2023-08-12T13:06:11;33.10;86.60
11961;DHT22;6040;49.358;11.140;2023-08-12T13:08:38;32.80;86.10
11961;DHT22;6040;49.358;11.140;2023-08-12T13:11:05;32.60;85.80
11961;DHT22;6040;49.358;11.140;2023-08-12T13:13:32;32.50;86.80
11961;DHT22;6040;49.358;11.140;2023-08-12T13:15:59;32.50;88.70
11961;DHT22;6040;49.358;11.140;2023-08-12T13:18:25;32.60;90.00
11961;DHT22;6040;49.358;11.140;2023-08-12T13:20:54;32.40;85.60
11961;DHT22;6040;49.358;11.140;2023-08-12T13:23:21;32.30;87.50
11961;DHT22;6040;49.358;11.140;2023-08-12T13:25:47;32.20;88.10
11961;DHT22;6040;49.358;11.140;2023-08-12T13:28:14;32.30;86.60
11961;DHT22;6040;49.358;11.140;2023-08-12T13:30:41;32.10;88.20
11961;DHT22;6040;49.358;11.140;2023-08-12T13:33:08;32.10;88.20
11961;DHT22;6040;49.358;11.140;2023-08-12T13:35:34;32.10;87.10
11961;DHT22;6040;49.358;11.140;2023-08-12T13:38:03;31.90;89.10
11961;DHT22;6040;49.358;11.140;2023-08-12T13:40:30;31.60;89.50
11961;DHT22;6040;49.358;11.140;2023-08-12T13:42:57;31.50;88.90
11961;DHT22;6040;49.358;11.140;2023-08-12T13:45:24;32.20;90.60
11961;DHT22;6040;49.358;11.140;2023-08-12T13:47:52;31.20;90.50
11961;DHT22;6040;49.358;11.140;2023-08-12T13:50:19;31.10;91.00
11961;DHT22;6040;49.358;11.140;2023-08-12T13:52:46;31.10;90.80
11961;DHT22;6040;49.358;11.140;2023-08-12T13:55:15;31.00;90.20
11961;DHT22;6040;49.358;11.140;2023-08-12T13:57:42;30.90;90.20
11961;DHT22;6040;49.358;11.140;2023-08-12T14:00:10;30.80;90.90
11961;DHT22;6040;49.358;11.140;2023-08-12T14:02:38;30.70;90.60
11961;DHT22;6040;49.358;11.140;2023-08-12T14:05:06;30.50;91.50
11961;DHT22;6040;49.358;11.140;2023-08-12T14:07:33;30.50;91.40
11961;DHT22;6040;49.358;11.140;2023-08-12T14:10:00;30.40;91.30
11961;DHT22;6040;49.358;11.140;2023-08-12T14:12:28;30.50;91.60
11961;DHT22;6040;49.358;11.140;2023-08-12T14:14:55;30.50;91.90
11961;DHT22;6040;49.358;11.140;2023-08-12T14:17:21;30.60;92.10
11961;DHT22;6040;49.358;11.140;2023-08-12T14:19:51;30.60;92.60
11961;DHT22;6040;49.358;11.140;2023-08-12T14:22:18;30.60;92.30
11961;DHT22;6040;49.358;11.140;2023-08-12T14:24:45;30.50;92.40
11961;DHT22;6040;49.358;11.140;2023-08-12T14:27:13;30.50;92.60
11961;DHT22;6040;49.358;11.140;2023-08-12T14:29:42;30.40;93.00
11961;DHT22;6040;49.358;11.140;2023-08-12T14:32:08;30.10;93.50
11961;DHT22;6040;49.358;11.140;2023-08-12T14:34:35;29.50;94.80
11961;DHT22;6040;49.358;11.140;2023-08-12T14:37:02;29.00;95.30
11961;DHT22;6040;49.358;11.140;2023-08-12T14:39:29;28.60;97.30
11961;DHT22;6040;49.358;11.140;2023-08-12T14:41:56;28.10;98.60
11961;DHT22;6040;49.358;11.140;2023-08-12T14:44:23;27.70;99.90
11961;DHT22;6040;49.358;11.140;2023-08-12T14:46:51;27.20;99.90
11961;DHT22;6040;49.358;11.140;2023-08-12T14:49:18;26.90;99.90
11961;DHT22;6040;49.358;11.140;2023-08-12T14:51:44;26.60;99.90
11961;DHT22;6040;49.358;11.140;2023-08-12T14:54:11;26.40;99.90
11961;DHT22;6040;49.358;11.140;2023-08-12T14:56:38;26.20;99.90
11961;DHT22;6040;49.358;11.140;2023-08-12T14:59:05;25.80;99.90
11961;DHT22;6040;49.358;11.140;2023-08-12T15:01:32;25.60;99.90
11961;DHT22;6040;49.358;11.140;2023-08-12T15:04:00;25.40;99.90
11961;DHT22;6040;49.358;11.140;2023-08-12T15:06:27;25.20;99.90
11961;DHT22;6040;49.358;11.140;2023-08-12T15:08:54;24.80;99.90
11961;DHT22;6040;49.358;11.140;2023-08-12T15:11:21;24.60;99.90
11961;DHT22;6040;49.358;11.140;2023-08-12T15:13:48;24.30;99.90
11961;DHT22;6040;49.358;11.140;2023-08-12T15:16:14;24.00;99.90
11961;DHT22;6040;49.358;11.140;2023-08-12T15:18:41;23.70;99.90
11961;DHT22;6040;49.358;11.140;2023-08-12T15:21:10;23.50;99.90
11961;DHT22;6040;49.358;11.140;2023-08-12T15:23:37;23.40;99.90
11961;DHT22;6040;49.358;11.140;2023-08-12T15:26:03;23.40;99.90
11961;DHT22;6040;49.358;11.140;2023-08-12T15:28:30;23.10;99.90
11961;DHT22;6040;49.358;11.140;2023-08-12T15:30:57;22.90;99.90